Portada
METAR-TAF:

METAR-TAF

Aeroports :

Kermanxah, Iran

latitud: 34-16N, longitud: 047-07E, altitud: 1320 m

Observació

L'informe es va fer fa 31 minuts, a les 13:30 UTC
Vent 14 kt del Oest
Temperatura 11°C
Humitat 35%
Pressió 1012 hPa
Visibilitat 10 km o més
Núvols disperses a una alçada de 4500 ft

METAR: OICC 221330Z 28014KT 9999 SCT045 11/M04 Q1011 A2988 NOSIG

Hora: 18:31 (14:01 UTC)


TAF: manca

Observacions i pronòstics meteorològics de més de 4000 aeroports (METAR i TAF).

Les estacions disponibles són els punts grocs i vermells al mapa.

Posi el ratolí al punt desitjat per veure el nom de l'estació.

Feu clic per veure les observacions i els pronòstics meteorològics.

Per canviar el mapa: feu clic els botons verds amb una creu de color negre per apropar; al botó verd amb un guió per allunyar la imatge; o en les fletxes verdes per a mapes adjacents.


METAR-TAF: